createdAt,value
2018-05-29T00:00:50.599Z,27.53
2018-05-29T00:01:50.579Z,27.46
2018-05-29T00:02:50.568Z,27.55
2018-05-29T00:03:50.559Z,27.53
2018-05-29T00:04:50.547Z,27.52
2018-05-29T00:05:50.531Z,27.58
2018-05-29T00:06:50.520Z,27.52
2018-05-29T00:07:50.507Z,27.59
2018-05-29T00:08:50.500Z,27.50
2018-05-29T00:09:50.483Z,27.50
2018-05-29T00:10:50.473Z,27.58
2018-05-29T00:11:50.458Z,27.52
2018-05-29T00:12:50.447Z,27.53
2018-05-29T00:13:50.436Z,27.55
2018-05-29T00:14:50.422Z,27.46
2018-05-29T00:15:50.408Z,27.53
2018-05-29T00:16:50.398Z,27.46
2018-05-29T00:17:50.385Z,27.52
2018-05-29T00:18:50.372Z,27.52
2018-05-29T00:19:50.360Z,27.58
2018-05-29T00:20:50.350Z,27.55
2018-05-29T00:21:50.335Z,27.50
2018-05-29T00:22:50.324Z,27.49
2018-05-29T00:23:50.312Z,27.58
2018-05-29T00:24:50.304Z,27.53
2018-05-29T00:25:50.287Z,27.53
2018-05-29T00:26:50.273Z,27.49
2018-05-29T00:27:50.262Z,27.46
2018-05-29T00:28:50.252Z,27.55
2018-05-29T00:29:50.240Z,27.50
2018-05-29T00:30:50.227Z,27.46
2018-05-29T00:31:50.212Z,27.55
2018-05-29T00:32:50.198Z,27.49
2018-05-29T00:33:50.189Z,27.61
2018-05-29T00:34:50.176Z,27.55
2018-05-29T00:35:50.165Z,27.53
2018-05-29T00:36:50.151Z,27.55
2018-05-29T00:37:50.140Z,27.50
2018-05-29T00:38:50.129Z,27.55
2018-05-29T00:39:50.115Z,27.50
2018-05-29T00:40:50.103Z,27.48
2018-05-29T00:41:50.092Z,27.50
2018-05-29T00:42:50.076Z,27.48
2018-05-29T00:43:50.066Z,27.50
2018-05-29T00:44:50.054Z,27.49
2018-05-29T00:45:50.043Z,27.53
2018-05-29T00:46:50.030Z,27.58
2018-05-29T00:47:50.020Z,27.50
2018-05-29T00:48:50.003Z,27.50
2018-05-29T00:49:49.992Z,27.48
2018-05-29T00:50:49.979Z,27.48
2018-05-29T00:51:49.967Z,27.53
2018-05-29T00:52:49.955Z,27.49
2018-05-29T00:53:49.941Z,27.50
2018-05-29T00:54:49.930Z,27.48
2018-05-29T00:55:49.918Z,27.50
2018-05-29T00:56:49.907Z,27.55
2018-05-29T00:57:49.893Z,27.52
2018-05-29T00:58:49.880Z,27.48
2018-05-29T00:59:49.868Z,27.46
2018-05-29T01:00:49.857Z,27.48
2018-05-29T01:01:49.844Z,27.48
2018-05-29T01:02:49.831Z,27.49
2018-05-29T01:03:49.820Z,27.48
2018-05-29T01:04:49.814Z,27.48
2018-05-29T01:05:49.795Z,27.40
2018-05-29T01:06:49.786Z,27.46
2018-05-29T01:07:49.770Z,27.50
2018-05-29T01:08:49.760Z,27.43
2018-05-29T01:09:49.749Z,27.49
2018-05-29T01:10:49.735Z,27.50
2018-05-29T01:11:49.721Z,27.45
2018-05-29T01:12:49.711Z,27.49
2018-05-29T01:13:49.696Z,27.46
2018-05-29T01:14:49.684Z,27.50
2018-05-29T01:15:49.672Z,27.46
2018-05-29T01:16:49.662Z,27.45
2018-05-29T01:17:49.647Z,27.53
2018-05-29T01:18:49.633Z,27.48
2018-05-29T01:19:49.622Z,27.40
2018-05-29T01:20:49.613Z,27.40
2018-05-29T01:21:49.599Z,27.40
2018-05-29T01:22:49.587Z,27.52
2018-05-29T01:23:49.577Z,27.45
2018-05-29T01:24:49.564Z,27.39
2018-05-29T01:25:49.549Z,27.45
2018-05-29T01:26:49.537Z,27.45
2018-05-29T01:27:49.523Z,27.52
2018-05-29T01:28:49.514Z,27.42
2018-05-29T01:29:49.501Z,27.42
2018-05-29T01:30:49.489Z,27.48
2018-05-29T01:31:49.475Z,27.48
2018-05-29T01:32:49.467Z,27.40
2018-05-29T01:33:49.450Z,27.39
2018-05-29T01:34:49.439Z,27.39
2018-05-29T01:35:49.427Z,27.52
2018-05-29T01:36:49.413Z,27.40
2018-05-29T01:37:49.401Z,27.39
2018-05-29T01:38:49.388Z,27.43
2018-05-29T01:39:49.376Z,27.38
2018-05-29T01:40:49.364Z,27.39
2018-05-29T01:41:49.352Z,27.40
2018-05-29T01:42:49.340Z,27.46
2018-05-29T01:43:49.327Z,27.38
2018-05-29T01:44:49.316Z,27.39
2018-05-29T01:45:49.302Z,27.42
2018-05-29T01:46:49.292Z,27.42
2018-05-29T01:47:49.281Z,27.45
2018-05-29T01:48:49.266Z,27.38
2018-05-29T01:49:49.253Z,27.39
2018-05-29T01:50:49.241Z,27.35
2018-05-29T01:51:49.228Z,27.42
2018-05-29T01:52:49.216Z,27.45
2018-05-29T01:53:49.206Z,27.43
2018-05-29T01:54:49.198Z,27.42
2018-05-29T01:55:49.178Z,27.39
2018-05-29T01:56:49.168Z,27.43
2018-05-29T01:57:49.154Z,27.39
2018-05-29T01:58:49.143Z,27.46
2018-05-29T01:59:49.134Z,27.43
2018-05-29T02:00:49.118Z,27.38
2018-05-29T02:01:49.104Z,27.42
2018-05-29T02:02:49.093Z,27.35
2018-05-29T02:03:49.084Z,27.42
2018-05-29T02:04:49.069Z,27.42
2018-05-29T02:05:49.056Z,27.39
2018-05-29T02:06:49.044Z,27.42
2018-05-29T02:07:49.032Z,27.35
2018-05-29T02:08:49.020Z,27.33
2018-05-29T02:09:49.009Z,27.42
2018-05-29T02:10:48.993Z,27.35
2018-05-29T02:11:48.980Z,27.43
2018-05-29T02:12:48.975Z,27.46
2018-05-29T02:13:48.963Z,27.43
2018-05-29T02:14:48.945Z,27.31
2018-05-29T02:15:48.932Z,27.40
2018-05-29T02:16:48.921Z,27.42
2018-05-29T02:17:48.908Z,27.42
2018-05-29T02:18:48.893Z,27.35
2018-05-29T02:19:48.884Z,27.40
2018-05-29T02:20:48.872Z,27.38
2018-05-29T02:21:48.858Z,27.38
2018-05-29T02:22:48.847Z,27.39
2018-05-29T02:23:48.832Z,27.39
2018-05-29T02:24:48.820Z,27.30
2018-05-29T02:25:48.808Z,27.35
2018-05-29T02:26:48.797Z,27.43
2018-05-29T02:27:48.784Z,27.39
2018-05-29T02:28:48.773Z,27.42
2018-05-29T02:29:48.764Z,27.34
2018-05-29T02:30:48.749Z,27.42
2018-05-29T02:31:48.736Z,27.48
2018-05-29T02:32:48.724Z,27.46
2018-05-29T02:33:48.714Z,27.39
2018-05-29T02:34:48.698Z,27.39
2018-05-29T02:35:48.686Z,27.45
2018-05-29T02:36:48.676Z,27.45
2018-05-29T02:37:48.662Z,27.38
2018-05-29T02:38:48.652Z,27.40
2018-05-29T02:39:48.637Z,27.34
2018-05-29T02:40:48.627Z,27.40
2018-05-29T02:41:48.610Z,27.39
2018-05-29T02:42:48.598Z,27.30
2018-05-29T02:43:48.587Z,27.35
2018-05-29T02:44:48.572Z,27.40
2018-05-29T02:45:48.563Z,27.45
2018-05-29T02:46:48.549Z,27.35
2018-05-29T02:47:48.539Z,27.39
2018-05-29T02:48:48.528Z,27.42
2018-05-29T02:49:48.512Z,27.39
2018-05-29T02:50:48.506Z,27.45
2018-05-29T02:51:48.488Z,27.42
2018-05-29T02:52:48.475Z,27.43
2018-05-29T02:53:48.461Z,27.39
2018-05-29T02:54:48.453Z,27.34
2018-05-29T02:55:48.436Z,27.42
2018-05-29T02:56:48.425Z,27.43
2018-05-29T02:57:48.411Z,27.38
2018-05-29T02:58:48.401Z,27.38
2018-05-29T02:59:48.380Z,27.35
2018-05-29T03:00:48.376Z,27.31
2018-05-29T03:01:48.366Z,27.40
2018-05-29T03:02:48.354Z,27.31
2018-05-29T03:03:48.339Z,27.31
2018-05-29T03:04:48.329Z,27.28
2018-05-29T03:05:48.311Z,27.28
2018-05-29T03:06:48.300Z,27.39
2018-05-29T03:07:48.292Z,27.31
2018-05-29T03:08:48.278Z,27.34
2018-05-29T03:09:48.265Z,27.27
2018-05-29T03:10:48.253Z,27.34
2018-05-29T03:11:48.243Z,27.35
2018-05-29T03:12:48.228Z,27.31
2018-05-29T03:13:48.214Z,27.40
2018-05-29T03:14:48.208Z,27.34
2018-05-29T03:15:48.193Z,27.30
2018-05-29T03:16:48.180Z,27.28
2018-05-29T03:17:48.165Z,27.42
2018-05-29T03:18:48.155Z,27.24
2018-05-29T03:19:48.141Z,27.27
2018-05-29T03:20:48.128Z,27.27
2018-05-29T03:21:48.114Z,27.28
2018-05-29T03:22:48.102Z,27.28
2018-05-29T03:23:48.090Z,27.34
2018-05-29T03:24:48.078Z,27.28
2018-05-29T03:25:48.066Z,27.33
2018-05-29T03:26:48.055Z,27.30
2018-05-29T03:27:48.043Z,27.34
2018-05-29T03:28:48.030Z,27.34
2018-05-29T03:29:48.016Z,27.27
2018-05-29T03:30:48.005Z,27.33
2018-05-29T03:31:47.991Z,27.31
2018-05-29T03:32:47.979Z,27.27
2018-05-29T03:33:47.971Z,27.31
2018-05-29T03:34:47.955Z,27.28
2018-05-29T03:35:47.948Z,27.27
2018-05-29T03:36:47.929Z,27.30
2018-05-29T03:37:47.922Z,27.31
2018-05-29T03:38:47.899Z,27.35
2018-05-29T03:39:47.893Z,27.30
2018-05-29T03:40:47.880Z,27.31
2018-05-29T03:41:47.870Z,27.30
2018-05-29T03:42:47.856Z,27.28
2018-05-29T03:43:47.843Z,27.30
2018-05-29T03:44:47.830Z,27.31
2018-05-29T03:45:47.819Z,27.31
2018-05-29T03:46:47.805Z,27.34
2018-05-29T03:47:47.792Z,27.23
2018-05-29T03:48:47.779Z,27.28
2018-05-29T03:49:47.766Z,27.31
2018-05-29T03:50:47.756Z,27.24
2018-05-29T03:51:47.743Z,27.33
2018-05-29T03:52:47.731Z,27.31
2018-05-29T03:53:47.717Z,27.24
2018-05-29T03:54:47.704Z,27.33
2018-05-29T03:55:47.696Z,27.31
2018-05-29T03:56:47.680Z,27.28
2018-05-29T03:57:47.668Z,27.28
2018-05-29T03:58:47.656Z,27.27
2018-05-29T03:59:47.650Z,27.28
2018-05-29T04:00:47.631Z,27.25
2018-05-29T04:01:47.617Z,27.25
2018-05-29T04:02:47.605Z,27.21
2018-05-29T04:03:47.594Z,27.28
2018-05-29T04:04:47.583Z,27.18
2018-05-29T04:05:47.569Z,27.16
2018-05-29T04:06:47.556Z,27.08
2018-05-29T04:07:47.544Z,27.05
2018-05-29T04:08:47.533Z,26.98
2018-05-29T04:09:47.520Z,27.06
2018-05-29T04:10:47.506Z,26.98
2018-05-29T04:11:47.496Z,26.97
2018-05-29T04:12:47.483Z,26.98
2018-05-29T04:13:47.469Z,27.01
2018-05-29T04:14:47.456Z,26.98
2018-05-29T04:15:47.480Z,26.98
2018-05-29T04:16:47.430Z,27.09
2018-05-29T04:17:47.418Z,27.08
2018-05-29T04:18:47.412Z,27.03
2018-05-29T04:19:47.394Z,27.06
2018-05-29T04:20:47.383Z,27.01
2018-05-29T04:21:47.368Z,27.05
2018-05-29T04:22:47.357Z,27.05
2018-05-29T04:23:47.344Z,27.06
2018-05-29T04:24:47.331Z,27.03
2018-05-29T04:25:47.320Z,27.02
2018-05-29T04:26:47.307Z,26.96
2018-05-29T04:27:47.294Z,27.05
2018-05-29T04:28:47.283Z,26.94
2018-05-29T04:29:47.272Z,27.03
2018-05-29T04:30:47.255Z,27.02
2018-05-29T04:31:47.245Z,26.90
2018-05-29T04:32:47.232Z,26.90
2018-05-29T04:33:47.218Z,26.90
2018-05-29T04:34:47.207Z,26.88
2018-05-29T04:35:47.199Z,26.91
2018-05-29T04:36:47.181Z,26.97
2018-05-29T04:37:47.169Z,26.88
2018-05-29T04:38:47.156Z,26.83
2018-05-29T04:39:47.143Z,26.91
2018-05-29T04:40:47.132Z,26.91
2018-05-29T04:41:47.117Z,26.91
2018-05-29T04:42:47.105Z,26.83
2018-05-29T04:43:47.139Z,26.81
2018-05-29T04:44:47.085Z,26.87
2018-05-29T04:45:47.067Z,26.78
2018-05-29T04:46:47.055Z,26.79
2018-05-29T04:47:47.043Z,26.87
2018-05-29T04:48:47.029Z,26.83
2018-05-29T04:49:47.017Z,26.81
2018-05-29T04:50:47.005Z,26.86
2018-05-29T04:51:46.995Z,26.81
2018-05-29T04:52:46.982Z,26.78
2018-05-29T04:53:46.965Z,26.83
2018-05-29T04:54:46.957Z,26.79
2018-05-29T04:55:46.942Z,26.79
2018-05-29T04:56:46.929Z,26.83
2018-05-29T04:57:46.916Z,26.83
2018-05-29T04:58:46.903Z,26.76
2018-05-29T04:59:46.891Z,26.81
2018-05-29T05:00:46.878Z,26.86
2018-05-29T05:01:46.864Z,26.81
2018-05-29T05:02:46.852Z,26.76
2018-05-29T05:03:46.842Z,26.84
2018-05-29T05:04:46.828Z,26.76
2018-05-29T05:05:46.816Z,26.76
2018-05-29T05:06:46.802Z,26.81
2018-05-29T05:07:46.789Z,26.79
2018-05-29T05:08:46.779Z,26.66
2018-05-29T05:09:46.765Z,26.76
2018-05-29T05:10:46.753Z,26.72
2018-05-29T05:11:46.740Z,26.68
2018-05-29T05:12:46.729Z,26.72
2018-05-29T05:13:46.715Z,26.75
2018-05-29T05:14:46.701Z,26.72
2018-05-29T05:15:46.689Z,26.75
2018-05-29T05:16:46.677Z,26.72
2018-05-29T05:17:46.663Z,26.76
2018-05-29T05:18:46.653Z,26.66
2018-05-29T05:19:46.636Z,26.69
2018-05-29T05:20:46.625Z,26.66
2018-05-29T05:21:46.616Z,26.72
2018-05-29T05:22:46.604Z,26.75
2018-05-29T05:23:46.587Z,26.73
2018-05-29T05:24:46.575Z,26.72
2018-05-29T05:25:46.562Z,26.72
2018-05-29T05:26:46.549Z,26.75
2018-05-29T05:27:46.536Z,26.75
2018-05-29T05:28:46.523Z,26.73
2018-05-29T05:29:46.512Z,26.69
2018-05-29T05:30:46.499Z,26.76
2018-05-29T05:31:46.485Z,26.69
2018-05-29T05:32:46.474Z,26.72
2018-05-29T05:33:46.460Z,26.72
2018-05-29T05:34:46.449Z,26.73
2018-05-29T05:35:46.436Z,26.72
2018-05-29T05:36:46.425Z,26.73
2018-05-29T05:40:17.977Z,26.79
2018-05-29T05:41:17.951Z,26.78
2018-05-29T05:43:10.821Z,26.84
2018-05-29T05:44:10.792Z,26.79
2018-05-29T05:46:03.664Z,26.83
2018-05-29T05:47:03.640Z,26.87
2018-05-29T05:48:56.509Z,26.84
2018-05-29T05:49:56.482Z,26.86
2018-05-29T05:51:49.360Z,26.90
2018-05-29T05:52:49.403Z,26.90
2018-05-29T05:53:49.329Z,26.88
2018-05-29T05:54:49.317Z,26.81
2018-05-29T05:55:49.304Z,26.81
2018-05-29T05:56:49.291Z,26.84
2018-05-29T05:57:49.278Z,26.86
2018-05-29T05:58:49.266Z,26.88
2018-05-29T05:59:49.252Z,26.84
2018-05-29T06:00:49.239Z,26.87
2018-05-29T06:03:20.823Z,26.90
2018-05-29T06:04:20.795Z,26.86
2018-05-29T06:06:13.674Z,26.87
2018-05-29T06:07:13.644Z,26.87
2018-05-29T06:09:06.513Z,26.88
2018-05-29T06:10:06.494Z,26.87
2018-05-29T06:11:59.363Z,26.90
2018-05-29T06:12:59.339Z,26.87
2018-05-29T06:14:52.208Z,26.88
2018-05-29T06:15:52.188Z,26.90
2018-05-29T06:17:45.353Z,26.91
2018-05-29T06:18:45.035Z,27.02
2018-05-29T06:20:38.093Z,26.90
2018-05-29T06:21:37.881Z,26.90
2018-05-29T06:23:30.742Z,26.88
2018-05-29T06:24:30.724Z,26.88
2018-05-29T06:26:23.581Z,26.91
2018-05-29T06:27:23.565Z,26.90
2018-05-29T06:29:16.432Z,26.86
2018-05-29T06:30:16.416Z,26.93
2018-05-29T06:32:09.275Z,26.96
2018-05-29T06:33:09.260Z,26.90
2018-05-29T06:34:09.246Z,26.88
2018-05-29T06:35:09.239Z,26.88
2018-05-29T06:36:09.220Z,26.96
2018-05-29T06:37:09.215Z,27.01
2018-05-29T06:38:09.211Z,26.84
2018-05-29T06:39:09.182Z,27.01
2018-05-29T06:40:09.173Z,26.97
2018-05-29T06:41:09.157Z,26.96
2018-05-29T06:42:09.145Z,26.96
2018-05-29T06:43:09.131Z,26.94
2018-05-29T06:44:09.119Z,27.05
2018-05-29T06:45:09.182Z,27.05
2018-05-29T06:46:09.096Z,26.98
2018-05-29T06:47:09.083Z,27.01
2018-05-29T06:48:09.074Z,26.94
2018-05-29T06:49:09.057Z,26.98
2018-05-29T06:50:09.044Z,27.03
2018-05-29T06:51:09.033Z,26.96
2018-05-29T06:52:09.019Z,27.03
2018-05-29T06:53:09.005Z,26.90
2018-05-29T06:54:08.995Z,26.93
2018-05-29T06:55:08.979Z,27.01
2018-05-29T06:56:08.968Z,26.98
2018-05-29T06:57:08.955Z,27.05
2018-05-29T06:58:16.086Z,26.97
2018-05-29T07:00:01.812Z,27.02
2018-05-29T07:01:01.787Z,27.02
2018-05-29T07:02:54.652Z,26.98
2018-05-29T07:03:54.641Z,27.06
2018-05-29T07:05:54.644Z,27.02
2018-05-29T07:06:47.481Z,27.06
2018-05-29T07:08:40.344Z,26.97
2018-05-29T07:09:40.328Z,27.09
2018-05-29T07:11:33.204Z,27.03
2018-05-29T07:12:33.176Z,27.03
2018-05-29T07:14:26.036Z,27.02
2018-05-29T07:15:26.023Z,27.09
2018-05-29T07:17:18.890Z,27.08
2018-05-29T07:18:18.866Z,27.05
2018-05-29T07:20:11.734Z,26.97
2018-05-29T07:21:11.713Z,27.09
2018-05-29T07:23:04.590Z,27.09
2018-05-29T07:24:04.565Z,27.03
2018-05-29T07:25:57.432Z,27.12
2018-05-29T07:26:57.417Z,27.06
2018-05-29T07:28:50.537Z,27.11
2018-05-29T07:29:50.262Z,27.06
2018-05-29T07:31:43.127Z,27.09
2018-05-29T07:32:43.112Z,27.18
2018-05-29T07:34:35.987Z,27.09
2018-05-29T07:35:35.963Z,27.09
2018-05-29T07:36:35.949Z,27.11
2018-05-29T07:37:35.938Z,27.20
2018-05-29T07:38:35.925Z,27.09
2018-05-29T07:39:35.912Z,27.11
2018-05-29T07:40:35.897Z,27.12
2018-05-29T07:41:35.884Z,27.08
2018-05-29T07:42:35.872Z,27.11
2018-05-29T07:43:35.867Z,27.21
2018-05-29T07:44:35.846Z,27.08
2018-05-29T07:45:35.834Z,27.20
2018-05-29T07:46:35.822Z,27.06
2018-05-29T07:47:35.810Z,27.09
2018-05-29T07:48:35.801Z,27.21
2018-05-29T07:49:35.785Z,27.24
2018-05-29T07:50:35.770Z,27.09
2018-05-29T07:51:35.758Z,27.20
2018-05-29T07:52:35.748Z,27.11
2018-05-29T07:53:35.739Z,27.12
2018-05-29T07:54:35.720Z,27.18
2018-05-29T07:55:35.709Z,27.12
2018-05-29T07:56:35.694Z,27.15
2018-05-29T07:57:35.683Z,27.16
2018-05-29T07:58:35.672Z,27.21
2018-05-29T07:59:35.657Z,27.18
2018-05-29T08:00:35.648Z,27.12
2018-05-29T08:01:35.635Z,27.20
2018-05-29T08:02:35.621Z,27.20
2018-05-29T08:03:35.610Z,27.25
2018-05-29T08:04:35.595Z,27.15
2018-05-29T08:05:35.583Z,27.25
2018-05-29T08:06:35.569Z,27.16
2018-05-29T08:07:35.558Z,27.21
2018-05-29T08:08:35.546Z,27.20
2018-05-29T08:09:35.534Z,27.18
2018-05-29T08:10:35.576Z,27.24
2018-05-29T08:11:35.508Z,27.21
2018-05-29T08:12:35.494Z,27.23
2018-05-29T08:13:35.481Z,27.23
2018-05-29T08:14:35.467Z,27.20
2018-05-29T08:15:35.456Z,27.13
2018-05-29T08:16:35.444Z,27.23
2018-05-29T08:17:35.430Z,27.21
2018-05-29T08:18:35.474Z,27.21
2018-05-29T08:19:35.409Z,27.30
2018-05-29T08:20:35.391Z,27.23
2018-05-29T08:21:42.526Z,27.33
2018-05-29T08:23:28.257Z,27.30
2018-05-29T08:24:28.230Z,27.25
2018-05-29T08:26:21.090Z,27.31
2018-05-29T08:27:21.078Z,27.34
2018-05-29T08:29:14.028Z,27.25
2018-05-29T08:30:13.921Z,27.30
2018-05-29T08:32:06.786Z,27.31
2018-05-29T08:33:06.772Z,27.28
2018-05-29T08:34:59.638Z,27.34
2018-05-29T08:35:59.617Z,27.42
2018-05-29T08:37:52.476Z,27.42
2018-05-29T08:38:52.461Z,27.43
2018-05-29T08:40:45.342Z,27.45
2018-05-29T08:41:45.313Z,27.35
2018-05-29T08:43:38.186Z,27.42
2018-05-29T08:44:38.165Z,27.35
2018-05-29T08:46:31.282Z,27.40
2018-05-29T08:47:31.010Z,27.39
2018-05-29T08:49:23.868Z,27.45
2018-05-29T08:50:23.852Z,27.45
2018-05-29T08:52:16.729Z,27.43
2018-05-29T08:53:16.703Z,27.42
2018-05-29T08:55:09.570Z,27.46
2018-05-29T08:56:09.552Z,27.46
2018-05-29T08:58:02.428Z,27.55
2018-05-29T08:59:09.549Z,27.50
2018-05-29T09:00:55.264Z,27.45
2018-05-29T09:01:55.250Z,27.55
2018-05-29T09:03:48.121Z,27.49
2018-05-29T09:04:48.096Z,27.55
2018-05-29T09:06:40.951Z,27.63
2018-05-29T09:07:40.945Z,27.58
2018-05-29T09:09:33.821Z,27.68
2018-05-29T09:10:33.792Z,27.61
2018-05-29T09:12:26.654Z,27.74
2018-05-29T09:13:26.639Z,27.66
2018-05-29T09:15:19.507Z,27.68
2018-05-29T09:16:19.485Z,27.68
2018-05-29T09:18:12.353Z,27.77
2018-05-29T09:19:12.336Z,27.65
2018-05-29T09:21:05.207Z,27.78
2018-05-29T09:22:05.181Z,27.65
2018-05-29T09:23:58.046Z,27.74
2018-05-29T09:24:58.040Z,27.74
2018-05-29T09:26:50.897Z,27.71
2018-05-29T09:27:50.874Z,27.77
2018-05-29T09:29:43.819Z,27.69
2018-05-29T09:30:43.727Z,27.66
2018-05-29T09:32:36.604Z,27.74
2018-05-29T09:33:36.576Z,27.72
2018-05-29T09:35:29.472Z,27.74
2018-05-29T09:36:29.425Z,27.76
2018-05-29T09:38:22.560Z,27.71
2018-05-29T09:39:22.288Z,27.77
2018-05-29T09:41:15.148Z,27.74
2018-05-29T09:42:15.132Z,27.74
2018-05-29T09:44:07.999Z,27.78
2018-05-29T09:45:07.979Z,27.72
2018-05-29T09:47:00.837Z,27.81
2018-05-29T09:48:00.820Z,27.84
2018-05-29T09:49:53.716Z,27.86
2018-05-29T09:50:53.690Z,27.86
2018-05-29T09:52:46.574Z,27.81
2018-05-29T09:53:46.535Z,27.84
2018-05-29T09:55:39.759Z,27.83
2018-05-29T09:56:39.384Z,27.88
2018-05-29T09:58:32.250Z,27.81
2018-05-29T09:59:32.235Z,27.87
2018-05-29T10:01:25.107Z,27.86
2018-05-29T10:02:25.086Z,27.81
2018-05-29T10:04:25.076Z,27.81
2018-05-29T10:05:17.933Z,27.80
2018-05-29T10:07:10.817Z,27.88
2018-05-29T10:08:10.785Z,27.88
2018-05-29T10:10:03.651Z,27.86
2018-05-29T10:11:03.632Z,27.77
2018-05-29T10:12:56.506Z,27.84
2018-05-29T10:13:56.479Z,27.86
2018-05-29T10:15:49.353Z,27.83
2018-05-29T10:16:49.336Z,27.86
2018-05-29T10:18:42.213Z,27.86
2018-05-29T10:19:49.325Z,27.77
2018-05-29T10:21:35.051Z,27.83
2018-05-29T10:22:35.034Z,27.88
2018-05-29T10:24:27.910Z,27.81
2018-05-29T10:25:27.886Z,27.78
2018-05-29T10:27:20.826Z,27.81
2018-05-29T10:28:20.737Z,27.77
2018-05-29T10:30:13.622Z,27.80
2018-05-29T10:31:13.593Z,27.84
2018-05-29T10:33:06.462Z,27.81
2018-05-29T10:34:06.446Z,27.84
2018-05-29T10:35:59.314Z,27.81
2018-05-29T10:36:59.294Z,27.87
2018-05-29T10:38:52.154Z,27.87
2018-05-29T10:39:52.139Z,27.83
2018-05-29T10:41:45.008Z,27.80
2018-05-29T10:42:44.984Z,27.90
2018-05-29T10:44:37.863Z,27.87
2018-05-29T10:45:37.849Z,27.84
2018-05-29T10:46:37.832Z,27.80
2018-05-29T10:47:37.819Z,27.83
2018-05-29T10:48:37.809Z,27.81
2018-05-29T10:49:37.797Z,27.87
2018-05-29T10:50:37.785Z,27.91
2018-05-29T10:51:37.779Z,27.90
2018-05-29T10:52:37.764Z,27.87
2018-05-29T10:53:37.749Z,27.78
2018-05-29T10:54:37.738Z,27.83
2018-05-29T10:55:44.863Z,27.90
2018-05-29T10:59:09.308Z,27.88
2018-05-29T11:00:02.141Z,27.88
2018-05-29T11:01:55.003Z,27.88
2018-05-29T11:02:54.991Z,27.81
2018-05-29T11:04:47.868Z,27.86
2018-05-29T11:05:47.837Z,27.91
2018-05-29T11:07:40.704Z,27.93
2018-05-29T11:08:40.687Z,27.86
2018-05-29T11:10:33.570Z,27.91
2018-05-29T11:11:40.684Z,27.83
2018-05-29T11:13:26.402Z,27.86
2018-05-29T11:14:26.387Z,27.90
2018-05-29T11:16:19.270Z,27.87
2018-05-29T11:17:19.246Z,27.91
2018-05-29T11:19:12.105Z,27.91
2018-05-29T11:20:12.092Z,27.91
2018-05-29T11:21:12.078Z,27.91
2018-05-29T11:22:12.067Z,27.90
2018-05-29T11:23:12.052Z,27.87
2018-05-29T11:24:12.039Z,27.87
2018-05-29T11:25:12.029Z,27.91
2018-05-29T11:26:19.153Z,27.84
2018-05-29T11:28:04.885Z,27.90
2018-05-29T11:29:04.860Z,27.86
2018-05-29T11:30:57.730Z,27.86
2018-05-29T11:31:57.712Z,27.83
2018-05-29T11:33:50.885Z,27.90
2018-05-29T11:34:50.563Z,27.90
2018-05-29T11:36:43.427Z,27.93
2018-05-29T11:37:43.410Z,27.86
2018-05-29T11:39:36.283Z,27.93
2018-05-29T11:40:36.260Z,27.90
2018-05-29T11:42:29.193Z,27.95
2018-05-29T11:43:29.197Z,27.88
2018-05-29T11:45:21.987Z,27.86
2018-05-29T11:46:21.965Z,27.90
2018-05-29T11:48:14.825Z,27.86
2018-05-29T11:49:14.807Z,27.96
2018-05-29T11:51:07.683Z,27.96
2018-05-29T11:52:07.656Z,27.95
2018-05-29T11:54:00.520Z,27.88
2018-05-29T11:55:00.539Z,27.91
2018-05-29T11:56:53.389Z,27.88
2018-05-29T11:57:53.360Z,27.87
2018-05-29T11:59:46.227Z,27.93
2018-05-29T12:00:46.210Z,27.83
2018-05-29T12:02:39.088Z,27.87
2018-05-29T12:03:39.064Z,27.90
2018-05-29T12:04:39.050Z,27.83
2018-05-29T12:05:39.038Z,27.91
2018-05-29T12:06:39.027Z,27.95
2018-05-29T12:07:39.022Z,27.84
2018-05-29T12:08:39.002Z,27.91
2018-05-29T12:09:38.988Z,27.90
2018-05-29T12:10:38.975Z,27.91
2018-05-29T12:11:38.963Z,27.90
2018-05-29T12:12:38.951Z,27.87
2018-05-29T12:13:38.941Z,27.91
2018-05-29T12:14:38.928Z,27.91
2018-05-29T12:15:38.914Z,27.90
2018-05-29T12:16:38.904Z,27.86
2018-05-29T12:17:38.891Z,27.91
2018-05-29T12:20:10.485Z,27.91
2018-05-29T12:21:10.455Z,27.88
2018-05-29T12:23:03.322Z,27.90
2018-05-29T12:24:03.306Z,27.87
2018-05-29T12:25:56.190Z,27.88
2018-05-29T12:26:56.156Z,27.83
2018-05-29T12:27:56.145Z,27.87
2018-05-29T12:28:56.142Z,27.95
2018-05-29T12:29:56.120Z,27.91
2018-05-29T12:30:56.110Z,27.83
2018-05-29T12:31:56.095Z,27.91
2018-05-29T12:32:56.083Z,27.81
2018-05-29T12:33:56.072Z,27.90
2018-05-29T12:34:56.060Z,27.86
2018-05-29T12:35:56.048Z,27.96
2018-05-29T12:37:03.181Z,27.95
2018-05-29T12:38:48.906Z,27.84
2018-05-29T12:39:48.880Z,27.87
2018-05-29T12:41:41.746Z,27.88
2018-05-29T12:42:41.728Z,27.87
2018-05-29T12:44:34.599Z,27.95
2018-05-29T12:45:34.574Z,27.96
2018-05-29T12:46:34.562Z,27.87
2018-05-29T12:47:34.550Z,27.93
2018-05-29T12:48:34.540Z,27.87
2018-05-29T12:49:34.530Z,27.84
2018-05-29T12:50:34.515Z,27.91
2018-05-29T12:51:34.507Z,27.91
2018-05-29T12:54:06.095Z,27.90
2018-05-29T12:55:06.066Z,27.86
2018-05-29T12:56:58.942Z,27.93
2018-05-29T12:58:06.073Z,27.88
2018-05-29T12:59:51.793Z,27.95
2018-05-29T13:00:51.765Z,27.87
2018-05-29T13:01:51.750Z,27.88
2018-05-29T13:02:51.738Z,27.83
2018-05-29T13:03:51.727Z,27.86
2018-05-29T13:04:51.725Z,27.95
2018-05-29T13:05:51.701Z,27.91
2018-05-29T13:06:51.689Z,27.88
2018-05-29T13:07:51.679Z,27.87
2018-05-29T13:08:51.665Z,27.87
2018-05-29T13:09:51.654Z,27.86
2018-05-29T13:10:51.638Z,27.84
2018-05-29T13:11:51.626Z,27.88
2018-05-29T13:12:51.615Z,27.87
2018-05-29T13:13:51.604Z,27.91
2018-05-29T13:14:51.592Z,27.86
2018-05-29T13:15:51.578Z,27.87
2018-05-29T13:16:51.569Z,27.88
2018-05-29T13:17:51.556Z,27.78
2018-05-29T13:18:51.541Z,27.88
2018-05-29T13:19:51.531Z,27.88
2018-05-29T13:20:51.521Z,27.84
2018-05-29T13:21:51.506Z,27.90
2018-05-29T13:22:51.493Z,27.86
2018-05-29T13:23:58.625Z,27.83
2018-05-29T13:25:44.356Z,27.91
2018-05-29T13:26:44.335Z,27.87
2018-05-29T13:28:37.214Z,27.84
2018-05-29T13:29:44.320Z,27.83
2018-05-29T13:31:30.045Z,27.83
2018-05-29T13:32:30.051Z,27.80
2018-05-29T13:34:22.917Z,27.80
2018-05-29T13:35:22.889Z,27.80
2018-05-29T13:37:15.755Z,27.84
2018-05-29T13:38:15.739Z,27.81
2018-05-29T13:40:08.611Z,27.84
2018-05-29T13:41:08.594Z,27.86
2018-05-29T13:43:01.458Z,27.80
2018-05-29T13:44:01.439Z,27.86
2018-05-29T13:45:54.309Z,27.84
2018-05-29T13:46:54.288Z,27.86
2018-05-29T13:48:47.149Z,27.80
2018-05-29T13:49:47.136Z,27.81
2018-05-29T13:51:40.009Z,27.90
2018-05-29T13:52:39.979Z,27.80
2018-05-29T13:54:32.850Z,27.81
2018-05-29T13:55:32.829Z,27.87
2018-05-29T13:57:25.704Z,27.69
2018-05-29T13:58:25.678Z,27.86
2018-05-29T14:00:18.539Z,27.83
2018-05-29T14:01:18.521Z,27.81
2018-05-29T14:03:11.400Z,27.80
2018-05-29T14:04:11.376Z,27.72
2018-05-29T14:06:04.241Z,27.78
2018-05-29T14:07:04.224Z,27.78
2018-05-29T14:08:57.150Z,27.77
2018-05-29T14:09:57.069Z,27.78
2018-05-29T14:11:49.938Z,27.77
2018-05-29T14:12:49.922Z,27.72
2018-05-29T14:14:42.790Z,27.76
2018-05-29T14:15:42.766Z,27.68
2018-05-29T14:17:35.631Z,27.65
2018-05-29T14:18:35.612Z,27.63
2018-05-29T14:20:28.482Z,27.71
2018-05-29T14:21:28.458Z,27.59
2018-05-29T14:23:21.316Z,27.61
2018-05-29T14:24:21.300Z,27.62
2018-05-29T14:26:14.174Z,27.65
2018-05-29T14:27:14.145Z,27.53
2018-05-29T14:29:07.006Z,27.55
2018-05-29T14:30:06.988Z,27.55
2018-05-29T14:31:59.854Z,27.52
2018-05-29T14:32:59.830Z,27.52
2018-05-29T14:34:52.688Z,27.48
2018-05-29T14:35:52.672Z,27.50
2018-05-29T14:37:45.538Z,27.48
2018-05-29T14:38:45.514Z,27.50
2018-05-29T14:40:38.378Z,27.49
2018-05-29T14:41:38.363Z,27.45
2018-05-29T14:43:31.225Z,27.42
2018-05-29T14:44:31.202Z,27.48
2018-05-29T14:46:24.062Z,27.43
2018-05-29T14:47:24.047Z,27.42
2018-05-29T14:49:16.912Z,27.48
2018-05-29T14:50:16.888Z,27.48
2018-05-29T14:52:09.764Z,27.53
2018-05-29T14:53:09.741Z,27.48
2018-05-29T14:55:02.597Z,27.48
2018-05-29T14:56:02.582Z,27.52
2018-05-29T14:57:55.704Z,27.52
2018-05-29T14:58:55.428Z,27.50
2018-05-29T15:00:48.292Z,27.55
2018-05-29T15:01:48.275Z,27.48
2018-05-29T15:03:41.152Z,27.48
2018-05-29T15:04:41.121Z,27.46